State College, PA (16803)

11:27 AM EST on January 30, 2015 (GMT -0500)
Woodycrest | Change Station
CLOSE
Current Station
Personal Weather Station
Location: State College, PA
Elevation: 1250 ft
Nearby Weather Stations
Active Advisory: Wind Chill Advisory

Elev 1250 ft 40.81 °N, 77.90 °W | Updated 44 seconds ago

Overcast
Overcast
25.5 °F
Feels Like 19 °F
N
6.0
Wind Variable Wind from NW
Gusts 8.3 mph

Today
High -- | Low -- °F
--% Chance of Precip.
Yesterday
High -- | Low -- °F
Precip. -- in
7:23 AM 5:26 PM
Waxing Gibbous, 83% visible
Pressure 30.03 in
Visibility 5.0 miles
Clouds Mostly Cloudy 1500 ft
Overcast 2100 ft
Windchill 19 °F
Dew Point -9 °F
Humidity 21%
Rainfall -999.00 in
Snow Depth Not available.
UV 1 out of 12
Pollen .10 out of 12
Air Quality Not available.
Flu Activity Not available.
METAR KUNV 301553Z 30015KT 5SM BLSN BKN015 OVC021 M04/M07 A3003

More Conditions Fewer Conditions

Pressure 30.03 in
Visibility 5.0 miles
Clouds Mostly Cloudy 1500 ft
Overcast 2100 ft
Windchill 19 °F
Dew Point -9 °F
Humidity 21%
Rainfall -999.00 in
Snow Depth Not available.
UV 1 out of 12
Pollen .10 out of 12
Air Quality Not available.
Flu Activity Not available.
METAR KUNV 301553Z 30015KT 5SM BLSN BKN015 OVC021 M04/M07 A3003

More Conditions Fewer Conditions

10-Day Weather Forecast

Almanac

Astronomy

Jan. 30, 2015 Rise Set
Actual Time
Civil Twilight
Nautical Twilight
Astronomical Twilight
Moon
Length of Visible Light
Length of Day
Tomorrow will be .
, % of the Moon is Illuminated

Today's Extremes

State Highs State Lows

Community

WunderPhotos

Upload Photos

1,791,810 photos uploaded!

WunderBlogs® & News

Nearby

Air Quality

  Air Quality AQ Index Pollutant
Not available.

Snow Depth

Station Depth Elevation

Earthquake Activity

City Distance Mag. Time & Date
Minimum magnitude displayed is 2.5.

Coastal Water Temperatures

Place Temperature

Nearby Weather Stations